createdAt,value
2022-10-31T00:01:29.991Z,85.75
2022-10-31T00:03:56.604Z,85.36
2022-10-31T00:06:25.104Z,85.05
2022-10-31T00:08:57.038Z,85.12
2022-10-31T00:11:27.735Z,85.05
2022-10-31T00:13:58.194Z,85.00
2022-10-31T00:16:29.357Z,85.18
2022-10-31T00:19:04.135Z,85.90
2022-10-31T00:21:31.750Z,85.90
2022-10-31T00:23:59.663Z,86.24
2022-10-31T00:26:30.575Z,86.23
2022-10-31T00:29:01.391Z,86.02
2022-10-31T00:31:28.475Z,85.23
2022-10-31T00:33:57.338Z,84.88
2022-10-31T00:36:23.900Z,85.38
2022-10-31T00:38:50.418Z,84.81
2022-10-31T00:41:18.666Z,85.16
2022-10-31T00:43:45.648Z,85.70
2022-10-31T00:46:13.478Z,85.95
2022-10-31T00:48:40.277Z,86.22
2022-10-31T00:51:07.163Z,86.03
2022-10-31T00:53:33.886Z,86.18
2022-10-31T00:56:00.636Z,86.55
2022-10-31T00:58:30.771Z,86.73
2022-10-31T01:01:01.131Z,86.77
2022-10-31T01:03:33.088Z,85.66
2022-10-31T01:06:12.151Z,84.71
2022-10-31T01:08:39.729Z,85.73
2022-10-31T01:11:08.164Z,86.97
2022-10-31T01:13:36.081Z,87.23
2022-10-31T01:16:04.389Z,87.20
2022-10-31T01:18:31.509Z,86.96
2022-10-31T01:21:09.573Z,86.17
2022-10-31T01:23:36.384Z,87.09
2022-10-31T01:26:05.950Z,87.28
2022-10-31T01:28:32.681Z,87.27
2022-10-31T01:31:04.806Z,86.79
2022-10-31T01:33:31.414Z,86.12
2022-10-31T01:35:59.844Z,85.12
2022-10-31T01:38:26.577Z,85.19
2022-10-31T01:40:53.412Z,84.83
2022-10-31T01:45:54.616Z,80.12
2022-10-31T01:48:27.945Z,78.75
2022-10-31T01:50:55.880Z,77.79
2022-10-31T01:53:26.814Z,79.00
2022-10-31T01:55:54.012Z,80.00
2022-10-31T01:58:26.560Z,80.11
2022-10-31T02:01:03.411Z,79.82
2022-10-31T02:03:34.001Z,80.32
2022-10-31T02:06:07.258Z,81.28
2022-10-31T02:08:36.176Z,81.78
2022-10-31T02:11:08.335Z,81.57
2022-10-31T02:13:35.279Z,80.66
2022-10-31T02:16:05.171Z,80.78
2022-10-31T02:18:35.166Z,81.60
2022-10-31T02:21:24.100Z,83.30
2022-10-31T02:24:08.709Z,84.32
2022-10-31T02:26:47.285Z,85.41
2022-10-31T02:29:49.817Z,86.27
2022-10-31T02:32:39.754Z,86.35
2022-10-31T02:35:24.910Z,86.20
2022-10-31T02:38:05.443Z,86.27
2022-10-31T02:40:37.196Z,84.41
2022-10-31T02:45:50.936Z,84.92
2022-10-31T02:48:25.407Z,84.54
2022-10-31T02:50:58.862Z,85.06
2022-10-31T02:53:25.404Z,85.79
2022-10-31T02:56:13.948Z,85.70
2022-10-31T02:58:56.743Z,86.35
2022-10-31T03:01:35.673Z,86.64
2022-10-31T03:04:24.372Z,87.14
2022-10-31T03:07:00.991Z,87.75
2022-10-31T03:09:52.790Z,88.08
2022-10-31T03:12:30.686Z,87.46
2022-10-31T03:15:14.423Z,86.80
2022-10-31T03:17:50.781Z,86.53
2022-10-31T03:20:23.567Z,87.16
2022-10-31T03:22:50.205Z,87.67
2022-10-31T03:25:17.983Z,87.70
2022-10-31T03:27:47.151Z,86.65
2022-10-31T03:30:15.141Z,86.50
2022-10-31T03:32:55.595Z,87.00
2022-10-31T03:35:25.024Z,87.49
2022-10-31T03:37:55.610Z,87.75
2022-10-31T03:40:25.956Z,88.13
2022-10-31T03:43:24.149Z,87.85
2022-10-31T03:45:50.934Z,87.23
2022-10-31T03:48:21.121Z,88.27
2022-10-31T03:51:07.840Z,88.60
2022-10-31T03:54:08.182Z,90.50
2022-10-31T03:56:52.365Z,91.78
2022-10-31T03:59:24.798Z,91.00
2022-10-31T04:01:55.705Z,90.21
2022-10-31T04:04:22.901Z,90.70
2022-10-31T04:06:51.636Z,90.87
2022-10-31T04:09:20.380Z,90.85
2022-10-31T04:11:52.029Z,91.31
2022-10-31T04:14:18.520Z,91.66
2022-10-31T04:16:46.213Z,91.14
2022-10-31T04:19:13.415Z,92.13
2022-10-31T04:21:40.023Z,89.80
2022-10-31T04:24:07.165Z,89.99
2022-10-31T04:26:34.557Z,90.45
2022-10-31T04:29:01.295Z,90.04
2022-10-31T04:31:28.303Z,90.28
2022-10-31T04:33:54.962Z,90.25
2022-10-31T04:36:21.651Z,90.12
2022-10-31T04:38:48.151Z,89.27
2022-10-31T04:41:14.673Z,88.49
2022-10-31T04:43:43.935Z,87.99
2022-10-31T04:46:13.523Z,87.99
2022-10-31T04:48:42.848Z,87.50
2022-10-31T04:51:10.508Z,87.65
2022-10-31T04:53:37.055Z,87.36
2022-10-31T04:56:03.824Z,87.06
2022-10-31T04:58:30.366Z,87.97
2022-10-31T05:00:57.646Z,87.23
2022-10-31T05:03:24.295Z,88.50
2022-10-31T05:05:50.959Z,88.55
2022-10-31T05:08:17.447Z,88.24
2022-10-31T05:10:43.961Z,88.73
2022-10-31T05:13:16.532Z,87.33
2022-10-31T05:15:43.095Z,86.84
2022-10-31T05:18:09.699Z,86.92
2022-10-31T05:20:36.229Z,86.69
2022-10-31T05:23:02.807Z,86.27
2022-10-31T05:25:30.555Z,85.64
2022-10-31T05:27:58.271Z,85.45
2022-10-31T05:30:28.048Z,82.18
2022-10-31T05:32:54.611Z,82.89
2022-10-31T05:35:26.941Z,83.55
2022-10-31T05:37:53.525Z,83.74
2022-10-31T05:40:21.430Z,84.97
2022-10-31T05:42:48.676Z,85.43
2022-10-31T05:45:17.109Z,85.56
2022-10-31T05:47:50.860Z,85.95
2022-10-31T05:50:17.522Z,84.69
2022-10-31T05:52:45.073Z,84.16
2022-10-31T05:55:11.593Z,82.73
2022-10-31T05:57:38.094Z,83.58
2022-10-31T06:00:06.066Z,83.26
2022-10-31T06:02:35.623Z,84.22
2022-10-31T06:05:02.901Z,84.56
2022-10-31T06:07:34.050Z,84.36
2022-10-31T06:10:01.172Z,84.28
2022-10-31T06:12:27.716Z,85.22
2022-10-31T06:14:54.202Z,85.36
2022-10-31T06:17:20.703Z,85.32
2022-10-31T06:19:47.293Z,85.45
2022-10-31T06:22:16.249Z,85.59
2022-10-31T06:24:42.772Z,86.17
2022-10-31T06:27:09.257Z,86.86
2022-10-31T06:29:35.728Z,85.69
2022-10-31T06:32:02.268Z,83.16
2022-10-31T06:34:28.766Z,82.04
2022-10-31T06:36:55.241Z,81.87
2022-10-31T06:39:21.774Z,79.27
2022-10-31T06:41:49.491Z,77.88
2022-10-31T06:44:19.221Z,78.23
2022-10-31T06:46:50.212Z,77.42
2022-10-31T06:49:20.242Z,81.91
2022-10-31T06:51:50.693Z,80.60
2022-10-31T06:54:20.610Z,80.13
2022-10-31T06:56:48.454Z,77.94
2022-10-31T06:59:19.783Z,78.09
2022-10-31T07:01:49.543Z,78.05
2022-10-31T07:04:16.905Z,76.37
2022-10-31T07:06:48.160Z,73.92
2022-10-31T07:09:20.652Z,71.69
2022-10-31T07:11:52.821Z,70.26
2022-10-31T07:14:20.627Z,67.92
2022-10-31T07:16:51.858Z,65.30
2022-10-31T07:19:21.780Z,62.37
2022-10-31T07:21:52.087Z,60.27
2022-10-31T07:24:22.338Z,58.70
2022-10-31T07:26:50.764Z,56.37
2022-10-31T07:29:20.089Z,55.22
2022-10-31T07:31:48.345Z,54.98
2022-10-31T07:34:15.160Z,54.29
2022-10-31T07:36:41.694Z,53.80
2022-10-31T07:39:08.487Z,53.27
2022-10-31T07:41:35.327Z,52.97
2022-10-31T07:44:02.107Z,52.16
2022-10-31T07:46:30.138Z,52.27
2022-10-31T07:48:56.975Z,52.40
2022-10-31T07:51:25.146Z,52.77
2022-10-31T07:53:53.621Z,52.62
2022-10-31T07:56:24.572Z,52.39
2022-10-31T07:58:51.576Z,51.47
2022-10-31T08:01:18.052Z,50.82
2022-10-31T08:03:44.553Z,50.68
2022-10-31T08:06:11.349Z,50.60
2022-10-31T08:08:38.660Z,57.66
2022-10-31T08:11:05.411Z,56.36
2022-10-31T08:13:31.946Z,54.29
2022-10-31T08:16:04.297Z,49.04
2022-10-31T08:18:31.463Z,49.19
2022-10-31T08:20:58.642Z,48.73
2022-10-31T08:23:25.208Z,49.41
2022-10-31T08:25:51.875Z,48.43
2022-10-31T08:28:24.416Z,48.15
2022-10-31T08:30:51.736Z,48.06
2022-10-31T08:33:23.010Z,48.17
2022-10-31T08:35:53.333Z,47.78
2022-10-31T08:38:23.657Z,48.35
2022-10-31T08:40:53.019Z,47.65
2022-10-31T08:43:22.320Z,48.33
2022-10-31T08:45:51.177Z,47.51
2022-10-31T08:48:21.288Z,48.19
2022-10-31T08:50:48.105Z,47.37
2022-10-31T08:53:16.105Z,47.28
2022-10-31T08:55:43.757Z,47.00
2022-10-31T08:58:24.634Z,46.28
2022-10-31T09:00:55.617Z,47.03
2022-10-31T09:03:27.458Z,46.41
2022-10-31T09:06:03.807Z,46.36
2022-10-31T09:08:32.137Z,45.58
2022-10-31T09:10:59.721Z,45.39
2022-10-31T09:13:28.287Z,44.94
2022-10-31T09:15:55.053Z,44.22
2022-10-31T09:18:23.846Z,45.08
2022-10-31T09:20:53.502Z,45.10
2022-10-31T09:23:24.084Z,44.71
2022-10-31T09:25:53.430Z,44.89
2022-10-31T09:28:24.918Z,44.33
2022-10-31T09:30:54.059Z,44.59
2022-10-31T09:33:21.836Z,43.50
2022-10-31T09:35:50.816Z,42.91
2022-10-31T09:38:24.497Z,43.62
2022-10-31T09:41:03.221Z,43.97
2022-10-31T09:43:43.109Z,44.13
2022-10-31T09:46:22.138Z,44.52
2022-10-31T09:48:54.808Z,44.10
2022-10-31T09:51:33.232Z,43.48
2022-10-31T09:54:02.879Z,44.40
2022-10-31T09:56:32.443Z,44.91
2022-10-31T09:59:06.027Z,43.88
2022-10-31T10:01:57.175Z,41.60
2022-10-31T10:04:58.187Z,42.67
2022-10-31T10:07:33.982Z,41.13
2022-10-31T10:10:02.882Z,41.74
2022-10-31T10:13:11.870Z,40.62
2022-10-31T10:15:52.285Z,41.57
2022-10-31T10:18:57.634Z,41.93
2022-10-31T10:21:33.156Z,42.18
2022-10-31T10:24:30.432Z,41.17
2022-10-31T10:27:06.416Z,42.27
2022-10-31T10:29:43.757Z,42.17
2022-10-31T10:32:28.465Z,42.50
2022-10-31T10:35:03.376Z,42.04
2022-10-31T10:37:38.666Z,42.45
2022-10-31T10:40:26.425Z,43.48
2022-10-31T10:43:32.050Z,42.89
2022-10-31T10:46:54.975Z,42.49
2022-10-31T10:49:53.743Z,42.11
2022-10-31T10:52:50.187Z,40.80
2022-10-31T10:55:39.170Z,39.18
2022-10-31T10:58:08.982Z,39.33
2022-10-31T11:00:39.266Z,40.18
2022-10-31T11:03:06.702Z,38.94
2022-10-31T11:05:36.720Z,38.11
2022-10-31T11:08:04.974Z,38.66
2022-10-31T11:10:31.598Z,37.73
2022-10-31T11:13:22.991Z,39.50
2022-10-31T11:16:06.073Z,41.42
2022-10-31T11:18:35.697Z,42.57
2022-10-31T11:21:05.254Z,41.78
2022-10-31T11:23:32.772Z,40.48
2022-10-31T11:26:07.352Z,39.27
2022-10-31T11:28:38.012Z,40.25
2022-10-31T11:31:13.031Z,39.71
2022-10-31T11:33:52.961Z,39.81
2022-10-31T11:36:30.557Z,38.92
2022-10-31T11:38:59.005Z,38.41
2022-10-31T11:41:32.721Z,38.36
2022-10-31T11:44:02.488Z,38.54
2022-10-31T11:46:40.653Z,38.47
2022-10-31T11:49:18.450Z,38.15
2022-10-31T11:51:49.974Z,39.20
2022-10-31T11:54:42.898Z,39.50
2022-10-31T11:57:30.398Z,39.74
2022-10-31T11:59:59.670Z,39.18
2022-10-31T12:02:27.442Z,39.47
2022-10-31T12:05:19.276Z,37.95
2022-10-31T12:07:45.774Z,38.15
2022-10-31T12:10:13.614Z,38.14
2022-10-31T12:12:54.180Z,38.46
2022-10-31T12:15:23.003Z,37.33
2022-10-31T12:18:04.970Z,37.52
2022-10-31T12:21:01.039Z,36.98
2022-10-31T12:23:42.886Z,36.20
2022-10-31T12:26:38.207Z,36.39
2022-10-31T12:29:04.664Z,37.02
2022-10-31T12:31:58.744Z,37.14
2022-10-31T12:34:42.671Z,37.75
2022-10-31T12:37:41.606Z,37.89
2022-10-31T12:40:08.061Z,37.18
2022-10-31T12:42:58.916Z,38.25
2022-10-31T12:45:41.318Z,38.27
2022-10-31T12:48:46.388Z,38.71
2022-10-31T12:51:31.356Z,39.48
2022-10-31T12:54:16.418Z,39.57
2022-10-31T12:57:01.292Z,40.61
2022-10-31T12:59:42.276Z,41.09
2022-10-31T13:02:19.793Z,40.01
2022-10-31T13:05:05.883Z,37.73
2022-10-31T13:07:40.382Z,37.33
2022-10-31T13:10:14.515Z,37.09
2022-10-31T13:12:42.823Z,36.25
2022-10-31T13:15:28.730Z,36.88
2022-10-31T13:18:07.765Z,36.89
2022-10-31T13:20:41.635Z,37.27
2022-10-31T13:23:44.637Z,37.34
2022-10-31T13:26:43.291Z,36.83
2022-10-31T13:29:20.480Z,35.83
2022-10-31T13:31:47.177Z,36.18
2022-10-31T13:34:25.995Z,36.73
2022-10-31T13:37:00.288Z,37.30
2022-10-31T13:39:47.849Z,37.30
2022-10-31T13:42:33.598Z,36.79
2022-10-31T13:45:14.825Z,37.05
2022-10-31T13:47:55.792Z,37.24
2022-10-31T13:50:31.160Z,37.95
2022-10-31T13:53:18.377Z,38.90
2022-10-31T13:55:50.757Z,39.88
2022-10-31T13:58:29.336Z,41.07
2022-10-31T14:01:14.680Z,40.86
2022-10-31T14:04:05.052Z,41.76
2022-10-31T14:06:49.109Z,42.30
2022-10-31T14:09:29.833Z,42.92
2022-10-31T14:11:58.928Z,43.13
2022-10-31T14:14:34.016Z,42.38
2022-10-31T14:17:01.077Z,42.87
2022-10-31T14:19:28.586Z,42.78
2022-10-31T14:21:59.029Z,42.78
2022-10-31T14:24:25.490Z,42.74
2022-10-31T14:26:57.888Z,42.38
2022-10-31T14:29:28.797Z,41.98
2022-10-31T14:32:15.686Z,41.99
2022-10-31T14:34:56.878Z,41.68
2022-10-31T14:38:20.175Z,42.05
2022-10-31T14:41:01.870Z,42.71
2022-10-31T14:43:40.700Z,43.68
2022-10-31T14:46:31.878Z,44.48
2022-10-31T14:49:21.266Z,44.86
2022-10-31T14:51:49.484Z,45.48
2022-10-31T14:54:25.297Z,45.57
2022-10-31T14:57:00.745Z,45.49
2022-10-31T14:59:39.096Z,46.73
2022-10-31T15:02:37.701Z,47.26
2022-10-31T15:05:09.747Z,47.40
2022-10-31T15:07:37.586Z,47.91
2022-10-31T15:10:06.045Z,48.61
2022-10-31T15:12:35.441Z,48.57
2022-10-31T15:15:27.911Z,49.41
2022-10-31T15:18:00.980Z,49.59
2022-10-31T15:20:31.033Z,50.47
2022-10-31T15:22:59.411Z,50.54
2022-10-31T15:25:29.431Z,50.50
2022-10-31T15:27:56.209Z,51.04
2022-10-31T15:30:30.295Z,51.03
2022-10-31T15:32:59.032Z,51.33
2022-10-31T15:35:31.093Z,51.42
2022-10-31T15:37:59.579Z,51.35
2022-10-31T15:40:29.475Z,50.90
2022-10-31T15:43:05.665Z,51.80
2022-10-31T15:45:32.363Z,51.45
2022-10-31T15:48:00.896Z,51.86
2022-10-31T15:50:30.646Z,51.46
2022-10-31T15:53:01.705Z,51.85
2022-10-31T15:55:33.319Z,51.98
2022-10-31T15:58:05.731Z,52.23
2022-10-31T16:00:35.208Z,52.22
2022-10-31T16:03:11.140Z,51.97
2022-10-31T16:05:44.310Z,52.28
2022-10-31T16:08:29.654Z,52.31
2022-10-31T16:11:01.641Z,52.29
2022-10-31T16:13:31.903Z,53.11
2022-10-31T16:16:33.061Z,53.44
2022-10-31T16:18:49.598Z,53.20
2022-10-31T16:21:16.590Z,53.61
2022-10-31T16:23:51.465Z,53.56
2022-10-31T16:26:20.110Z,53.69
2022-10-31T16:29:03.187Z,53.82
2022-10-31T16:31:38.943Z,54.17
2022-10-31T16:34:06.597Z,54.15
2022-10-31T16:36:44.518Z,54.42
2022-10-31T16:39:11.139Z,54.08
2022-10-31T16:41:47.295Z,54.71
2022-10-31T16:44:22.392Z,54.74
2022-10-31T16:46:49.327Z,54.61
2022-10-31T16:49:16.612Z,54.33
2022-10-31T16:51:43.888Z,54.44
2022-10-31T16:54:11.782Z,53.95
2022-10-31T16:56:39.061Z,55.01
2022-10-31T16:59:15.811Z,55.03
2022-10-31T17:01:50.221Z,54.67
2022-10-31T17:04:16.931Z,54.59
2022-10-31T17:06:43.442Z,54.80
2022-10-31T17:09:10.556Z,54.41
2022-10-31T17:11:37.444Z,54.17
2022-10-31T17:14:04.979Z,54.57
2022-10-31T17:16:31.462Z,55.00
2022-10-31T17:19:00.326Z,55.20
2022-10-31T17:21:30.143Z,55.13
2022-10-31T17:23:56.695Z,55.30
2022-10-31T17:26:23.277Z,55.19
2022-10-31T17:28:49.838Z,55.37
2022-10-31T17:31:22.744Z,55.32
2022-10-31T17:33:50.163Z,56.01
2022-10-31T17:36:17.067Z,56.08
2022-10-31T17:38:43.582Z,56.00
2022-10-31T17:41:11.440Z,56.19
2022-10-31T17:43:38.689Z,56.06
2022-10-31T17:46:05.445Z,56.31
2022-10-31T17:48:36.588Z,56.24
2022-10-31T17:51:04.949Z,56.61
2022-10-31T17:53:35.092Z,56.63
2022-10-31T17:56:07.060Z,56.76
2022-10-31T17:58:35.657Z,56.86
2022-10-31T18:01:10.883Z,56.72
2022-10-31T18:03:38.694Z,57.04
2022-10-31T18:06:05.964Z,57.30
2022-10-31T18:08:35.267Z,57.48
2022-10-31T18:11:10.992Z,57.61
2022-10-31T18:13:38.437Z,57.49
2022-10-31T18:16:13.144Z,57.09
2022-10-31T18:18:40.427Z,57.21
2022-10-31T18:21:07.383Z,57.41
2022-10-31T18:23:34.723Z,57.57
2022-10-31T18:26:01.274Z,57.81
2022-10-31T18:28:27.984Z,57.21
2022-10-31T18:30:54.759Z,57.64
2022-10-31T18:33:21.326Z,58.04
2022-10-31T18:35:47.888Z,57.68
2022-10-31T18:38:14.392Z,57.83
2022-10-31T18:40:40.948Z,58.16
2022-10-31T18:43:07.429Z,57.84
2022-10-31T18:45:46.577Z,58.70
2022-10-31T18:48:14.670Z,59.61
2022-10-31T18:50:41.580Z,60.18
2022-10-31T18:53:08.793Z,60.86
2022-10-31T18:55:43.891Z,62.06
2022-10-31T18:58:17.118Z,63.09
2022-10-31T19:00:44.832Z,66.09
2022-10-31T19:03:12.164Z,68.07
2022-10-31T19:05:38.770Z,69.75
2022-10-31T19:08:08.929Z,71.26
2022-10-31T19:10:39.933Z,73.12
2022-10-31T19:13:10.118Z,70.07
2022-10-31T19:15:40.213Z,70.53
2022-10-31T19:18:07.359Z,73.00
2022-10-31T19:20:36.183Z,76.66
2022-10-31T19:23:03.052Z,76.95
2022-10-31T19:25:30.422Z,82.36
2022-10-31T19:27:58.120Z,87.45
2022-10-31T19:30:24.826Z,91.27
2022-10-31T19:32:55.259Z,95.64
2022-10-31T19:35:21.816Z,98.46
2022-10-31T19:37:48.324Z,100.00
2022-10-31T19:40:14.861Z,100.00
2022-10-31T19:42:41.349Z,100.00
2022-10-31T19:45:11.078Z,100.00
2022-10-31T19:47:40.396Z,100.00
2022-10-31T19:50:10.115Z,100.00
2022-10-31T19:52:39.389Z,100.00
2022-10-31T19:55:08.243Z,100.00
2022-10-31T19:58:11.727Z,100.00
2022-10-31T20:00:27.476Z,100.00
2022-10-31T20:02:53.970Z,100.00
2022-10-31T20:05:20.470Z,100.00
2022-10-31T20:07:46.985Z,100.00
2022-10-31T20:10:13.461Z,100.00
2022-10-31T20:12:40.034Z,100.00
2022-10-31T20:15:11.140Z,100.00
2022-10-31T20:17:41.391Z,100.00
2022-10-31T20:20:10.980Z,100.00
2022-10-31T20:22:40.846Z,100.00
2022-10-31T20:25:10.988Z,100.00
2022-10-31T20:27:42.266Z,100.00
2022-10-31T20:30:12.411Z,100.00
2022-10-31T20:32:45.226Z,100.00
2022-10-31T20:35:17.367Z,100.00
2022-10-31T20:37:44.376Z,100.00
2022-10-31T20:40:11.183Z,100.00
2022-10-31T20:42:43.721Z,100.00
2022-10-31T20:45:10.778Z,100.00
2022-10-31T20:47:39.490Z,100.00
2022-10-31T20:50:09.500Z,100.00
2022-10-31T20:52:36.100Z,100.00
2022-10-31T20:55:02.824Z,100.00
2022-10-31T20:57:29.481Z,100.00
2022-10-31T20:59:56.075Z,100.00
2022-10-31T21:02:22.873Z,100.00
2022-10-31T21:04:49.690Z,100.00
2022-10-31T21:07:16.276Z,100.00
2022-10-31T21:09:42.847Z,100.00
2022-10-31T21:12:10.049Z,100.00
2022-10-31T21:14:39.457Z,100.00
2022-10-31T21:17:07.879Z,100.00
2022-10-31T21:19:36.174Z,100.00
2022-10-31T21:22:03.569Z,100.00
2022-10-31T21:24:30.105Z,100.00
2022-10-31T21:26:56.737Z,100.00
2022-10-31T21:29:23.349Z,100.00
2022-10-31T21:31:50.882Z,100.00
2022-10-31T21:34:18.537Z,100.00
2022-10-31T21:36:45.316Z,100.00
2022-10-31T21:39:12.220Z,100.00
2022-10-31T21:41:44.224Z,100.00
2022-10-31T21:44:13.824Z,100.00
2022-10-31T21:46:44.389Z,100.00
2022-10-31T21:49:14.042Z,100.00
2022-10-31T21:51:44.181Z,100.00
2022-10-31T21:54:30.131Z,100.00
2022-10-31T21:56:58.760Z,100.00
2022-10-31T21:59:25.955Z,100.00
2022-10-31T22:01:52.995Z,100.00
2022-10-31T22:04:19.873Z,100.00
2022-10-31T22:06:46.587Z,100.00
2022-10-31T22:09:14.780Z,100.00
2022-10-31T22:11:44.542Z,100.00
2022-10-31T22:14:15.196Z,100.00
2022-10-31T22:16:44.732Z,100.00
2022-10-31T22:19:15.435Z,100.00
2022-10-31T22:21:48.632Z,100.00
2022-10-31T22:24:16.409Z,100.00
2022-10-31T22:26:46.120Z,100.00
2022-10-31T22:29:20.561Z,100.00
2022-10-31T22:31:51.925Z,100.00
2022-10-31T22:34:22.115Z,100.00
2022-10-31T22:36:48.730Z,100.00
2022-10-31T22:39:15.323Z,100.00
2022-10-31T22:41:44.299Z,100.00
2022-10-31T22:44:10.938Z,100.00
2022-10-31T22:46:39.851Z,100.00
2022-10-31T22:49:10.039Z,100.00
2022-10-31T22:51:39.100Z,100.00
2022-10-31T22:54:09.829Z,100.00
2022-10-31T22:56:36.419Z,100.00
2022-10-31T22:59:03.357Z,100.00
2022-10-31T23:01:32.515Z,100.00
2022-10-31T23:04:00.244Z,100.00
2022-10-31T23:06:30.300Z,100.00
2022-10-31T23:08:57.627Z,100.00
2022-10-31T23:11:34.589Z,100.00
2022-10-31T23:14:09.673Z,100.00
2022-10-31T23:16:37.571Z,100.00
2022-10-31T23:19:07.999Z,100.00
2022-10-31T23:21:55.356Z,100.00
2022-10-31T23:24:29.631Z,100.00
2022-10-31T23:27:09.434Z,100.00
2022-10-31T23:29:37.379Z,100.00
2022-10-31T23:32:05.393Z,100.00
2022-10-31T23:34:32.262Z,100.00
2022-10-31T23:36:58.850Z,100.00
2022-10-31T23:39:25.431Z,100.00
2022-10-31T23:41:52.509Z,100.00
2022-10-31T23:44:19.056Z,100.00
2022-10-31T23:46:47.654Z,100.00
2022-10-31T23:49:14.196Z,100.00
2022-10-31T23:51:40.792Z,100.00
2022-10-31T23:54:08.148Z,100.00
2022-10-31T23:56:34.979Z,100.00
2022-10-31T23:59:02.111Z,100.00
